sensor_id;sensor_type;location;lat;lon;timestamp;pressure;altitude;pressure_sealevel;temperature;humidity
2184;BME280;1098;48.940;8.962;2023-03-01T00:01:51;99326.81;;;0.43;100.00
2184;BME280;1098;48.940;8.962;2023-03-01T00:04:21;99314.94;;;0.56;100.00
2184;BME280;1098;48.940;8.962;2023-03-01T00:06:50;99314.97;;;0.18;100.00
2184;BME280;1098;48.940;8.962;2023-03-01T00:09:18;99327.69;;;0.33;100.00
2184;BME280;1098;48.940;8.962;2023-03-01T00:11:47;99331.44;;;0.60;100.00
2184;BME280;1098;48.940;8.962;2023-03-01T00:14:16;99325.16;;;0.42;100.00
2184;BME280;1098;48.940;8.962;2023-03-01T00:16:45;99332.72;;;0.37;100.00
2184;BME280;1098;48.940;8.962;2023-03-01T00:19:16;99322.09;;;0.37;100.00
2184;BME280;1098;48.940;8.962;2023-03-01T00:21:46;99329.47;;;0.43;100.00
2184;BME280;1098;48.940;8.962;2023-03-01T00:24:15;99335.47;;;0.64;100.00
2184;BME280;1098;48.940;8.962;2023-03-01T00:26:44;99325.44;;;0.29;100.00
2184;BME280;1098;48.940;8.962;2023-03-01T00:29:13;99324.47;;;0.40;100.00
2184;BME280;1098;48.940;8.962;2023-03-01T00:31:42;99328.97;;;0.39;100.00
2184;BME280;1098;48.940;8.962;2023-03-01T00:34:10;99318.28;;;0.58;100.00
2184;BME280;1098;48.940;8.962;2023-03-01T00:36:39;99337.59;;;0.51;100.00
2184;BME280;1098;48.940;8.962;2023-03-01T00:39:13;99331.31;;;0.61;100.00
2184;BME280;1098;48.940;8.962;2023-03-01T00:41:42;99339.94;;;0.73;100.00
2184;BME280;1098;48.940;8.962;2023-03-01T00:44:11;99332.72;;;1.02;100.00
2184;BME280;1098;48.940;8.962;2023-03-01T00:46:39;99334.19;;;0.68;100.00
2184;BME280;1098;48.940;8.962;2023-03-01T00:49:08;99320.06;;;1.14;100.00
2184;BME280;1098;48.940;8.962;2023-03-01T00:51:36;99337.50;;;0.89;100.00
2184;BME280;1098;48.940;8.962;2023-03-01T00:54:08;99328.47;;;0.73;100.00
2184;BME280;1098;48.940;8.962;2023-03-01T00:56:37;99332.53;;;0.77;100.00
2184;BME280;1098;48.940;8.962;2023-03-01T00:59:05;99325.75;;;0.16;100.00
2184;BME280;1098;48.940;8.962;2023-03-01T01:01:34;99310.34;;;-0.28;100.00
2184;BME280;1098;48.940;8.962;2023-03-01T01:04:05;99342.94;;;-0.07;100.00
2184;BME280;1098;48.940;8.962;2023-03-01T01:06:35;99334.25;;;0.58;100.00
2184;BME280;1098;48.940;8.962;2023-03-01T01:09:05;99318.72;;;0.54;100.00
2184;BME280;1098;48.940;8.962;2023-03-01T01:11:36;99322.09;;;0.27;100.00
2184;BME280;1098;48.940;8.962;2023-03-01T01:14:04;99321.94;;;0.28;100.00
2184;BME280;1098;48.940;8.962;2023-03-01T01:16:33;99330.63;;;0.11;100.00
2184;BME280;1098;48.940;8.962;2023-03-01T01:19:02;99307.88;;;-0.01;100.00
2184;BME280;1098;48.940;8.962;2023-03-01T01:21:31;99306.88;;;0.00;100.00
2184;BME280;1098;48.940;8.962;2023-03-01T01:23:59;99324.78;;;-0.02;100.00
2184;BME280;1098;48.940;8.962;2023-03-01T01:26:30;99324.47;;;0.01;100.00
2184;BME280;1098;48.940;8.962;2023-03-01T01:29:02;99313.53;;;0.43;100.00
2184;BME280;1098;48.940;8.962;2023-03-01T01:31:32;99298.44;;;0.24;100.00
2184;BME280;1098;48.940;8.962;2023-03-01T01:34:03;99306.44;;;0.33;100.00
2184;BME280;1098;48.940;8.962;2023-03-01T01:36:33;99309.22;;;0.32;100.00
2184;BME280;1098;48.940;8.962;2023-03-01T01:39:01;99313.28;;;-0.12;100.00
2184;BME280;1098;48.940;8.962;2023-03-01T01:41:30;99302.38;;;0.00;100.00
2184;BME280;1098;48.940;8.962;2023-03-01T01:44:16;99300.88;;;-0.21;100.00
2184;BME280;1098;48.940;8.962;2023-03-01T01:46:47;99305.88;;;-0.28;100.00
2184;BME280;1098;48.940;8.962;2023-03-01T01:49:23;99291.06;;;0.08;100.00
2184;BME280;1098;48.940;8.962;2023-03-01T01:51:59;99287.97;;;0.22;100.00
2184;BME280;1098;48.940;8.962;2023-03-01T01:54:37;99285.06;;;0.06;100.00
2184;BME280;1098;48.940;8.962;2023-03-01T01:57:12;99278.91;;;-0.43;100.00
2184;BME280;1098;48.940;8.962;2023-03-01T01:59:49;99275.00;;;0.00;100.00
2184;BME280;1098;48.940;8.962;2023-03-01T02:02:19;99286.25;;;-0.65;100.00
2184;BME280;1098;48.940;8.962;2023-03-01T02:04:58;99272.34;;;0.00;100.00
2184;BME280;1098;48.940;8.962;2023-03-01T02:07:32;99278.22;;;-0.25;100.00
2184;BME280;1098;48.940;8.962;2023-03-01T02:10:02;99271.47;;;-0.20;100.00
2184;BME280;1098;48.940;8.962;2023-03-01T02:12:30;99272.75;;;-0.33;100.00
2184;BME280;1098;48.940;8.962;2023-03-01T02:15:00;99263.13;;;-0.25;100.00
2184;BME280;1098;48.940;8.962;2023-03-01T02:17:29;99266.44;;;-0.52;100.00
2184;BME280;1098;48.940;8.962;2023-03-01T02:20:07;99265.47;;;-1.00;100.00
2184;BME280;1098;48.940;8.962;2023-03-01T02:22:43;99246.59;;;-0.67;100.00
2184;BME280;1098;48.940;8.962;2023-03-01T02:25:26;99239.25;;;-0.94;100.00
2184;BME280;1098;48.940;8.962;2023-03-01T02:27:59;99236.81;;;-0.18;100.00
2184;BME280;1098;48.940;8.962;2023-03-01T02:30:32;99235.97;;;-0.19;100.00
2184;BME280;1098;48.940;8.962;2023-03-01T02:33:03;99238.16;;;-0.91;100.00
2184;BME280;1098;48.940;8.962;2023-03-01T02:35:34;99228.59;;;-0.35;100.00
2184;BME280;1098;48.940;8.962;2023-03-01T02:38:07;99219.06;;;-0.08;100.00
2184;BME280;1098;48.940;8.962;2023-03-01T02:40:38;99218.63;;;0.06;100.00
2184;BME280;1098;48.940;8.962;2023-03-01T02:43:08;99227.19;;;-0.29;100.00
2184;BME280;1098;48.940;8.962;2023-03-01T02:45:48;99223.53;;;-0.57;100.00
2184;BME280;1098;48.940;8.962;2023-03-01T02:48:17;99228.41;;;-0.62;100.00
2184;BME280;1098;48.940;8.962;2023-03-01T02:51:04;99223.97;;;-0.32;100.00
2184;BME280;1098;48.940;8.962;2023-03-01T02:53:39;99217.81;;;-0.72;100.00
2184;BME280;1098;48.940;8.962;2023-03-01T02:56:10;99209.06;;;-1.52;100.00
2184;BME280;1098;48.940;8.962;2023-03-01T02:58:41;99224.66;;;-0.69;100.00
2184;BME280;1098;48.940;8.962;2023-03-01T03:01:17;99222.56;;;-0.65;100.00
2184;BME280;1098;48.940;8.962;2023-03-01T03:03:46;99210.00;;;-0.54;100.00
2184;BME280;1098;48.940;8.962;2023-03-01T03:06:14;99225.78;;;-0.33;100.00
2184;BME280;1098;48.940;8.962;2023-03-01T03:08:43;99222.72;;;-0.67;100.00
2184;BME280;1098;48.940;8.962;2023-03-01T03:11:12;99219.31;;;-0.79;100.00
2184;BME280;1098;48.940;8.962;2023-03-01T03:13:41;99219.06;;;-0.76;100.00
2184;BME280;1098;48.940;8.962;2023-03-01T03:16:17;99215.59;;;-0.28;100.00
2184;BME280;1098;48.940;8.962;2023-03-01T03:18:46;99206.88;;;0.18;100.00
2184;BME280;1098;48.940;8.962;2023-03-01T03:21:15;99213.53;;;0.32;100.00
2184;BME280;1098;48.940;8.962;2023-03-01T03:23:43;99206.34;;;0.52;100.00
2184;BME280;1098;48.940;8.962;2023-03-01T03:26:14;99209.56;;;0.55;100.00
2184;BME280;1098;48.940;8.962;2023-03-01T03:28:42;99199.88;;;0.08;100.00
2184;BME280;1098;48.940;8.962;2023-03-01T03:31:10;99198.34;;;0.15;100.00
2184;BME280;1098;48.940;8.962;2023-03-01T03:33:40;99199.50;;;0.49;100.00
2184;BME280;1098;48.940;8.962;2023-03-01T03:36:08;99187.88;;;0.50;100.00
2184;BME280;1098;48.940;8.962;2023-03-01T03:38:39;99193.19;;;0.50;100.00
2184;BME280;1098;48.940;8.962;2023-03-01T03:41:08;99202.53;;;0.08;100.00
2184;BME280;1098;48.940;8.962;2023-03-01T03:43:38;99189.41;;;0.53;100.00
2184;BME280;1098;48.940;8.962;2023-03-01T03:46:06;99195.31;;;-0.10;100.00
2184;BME280;1098;48.940;8.962;2023-03-01T03:48:36;99189.28;;;0.45;100.00
2184;BME280;1098;48.940;8.962;2023-03-01T03:51:09;99170.19;;;0.22;100.00
2184;BME280;1098;48.940;8.962;2023-03-01T03:53:37;99176.81;;;0.08;100.00
2184;BME280;1098;48.940;8.962;2023-03-01T03:56:08;99170.88;;;0.33;100.00
2184;BME280;1098;48.940;8.962;2023-03-01T03:58:37;99176.41;;;0.13;100.00
2184;BME280;1098;48.940;8.962;2023-03-01T04:01:05;99179.63;;;0.44;100.00
2184;BME280;1098;48.940;8.962;2023-03-01T04:03:34;99174.53;;;0.23;100.00
2184;BME280;1098;48.940;8.962;2023-03-01T04:06:03;99177.59;;;0.28;100.00
2184;BME280;1098;48.940;8.962;2023-03-01T04:08:34;99170.72;;;-0.02;100.00
2184;BME280;1098;48.940;8.962;2023-03-01T04:11:04;99168.66;;;0.29;100.00
2184;BME280;1098;48.940;8.962;2023-03-01T04:13:46;99167.25;;;0.34;100.00
2184;BME280;1098;48.940;8.962;2023-03-01T04:16:15;99171.13;;;0.40;100.00
2184;BME280;1098;48.940;8.962;2023-03-01T04:18:44;99173.22;;;-0.01;100.00
2184;BME280;1098;48.940;8.962;2023-03-01T04:21:13;99168.00;;;0.17;100.00
2184;BME280;1098;48.940;8.962;2023-03-01T04:23:43;99175.63;;;-0.55;100.00
2184;BME280;1098;48.940;8.962;2023-03-01T04:26:11;99158.41;;;-0.03;100.00
2184;BME280;1098;48.940;8.962;2023-03-01T04:28:41;99160.59;;;0.11;100.00
2184;BME280;1098;48.940;8.962;2023-03-01T04:31:14;99155.06;;;-0.05;100.00
2184;BME280;1098;48.940;8.962;2023-03-01T04:33:46;99159.66;;;-0.07;100.00
2184;BME280;1098;48.940;8.962;2023-03-01T04:36:16;99160.09;;;-0.02;100.00
2184;BME280;1098;48.940;8.962;2023-03-01T04:38:50;99163.47;;;-0.58;100.00
2184;BME280;1098;48.940;8.962;2023-03-01T04:41:20;99160.97;;;-0.50;100.00
2184;BME280;1098;48.940;8.962;2023-03-01T04:43:49;99159.25;;;-0.12;100.00
2184;BME280;1098;48.940;8.962;2023-03-01T04:46:19;99157.31;;;-0.29;100.00
2184;BME280;1098;48.940;8.962;2023-03-01T04:48:48;99151.91;;;-0.47;100.00
2184;BME280;1098;48.940;8.962;2023-03-01T04:51:16;99167.94;;;-0.29;100.00
2184;BME280;1098;48.940;8.962;2023-03-01T04:53:46;99160.13;;;-0.41;100.00
2184;BME280;1098;48.940;8.962;2023-03-01T04:56:16;99169.81;;;0.07;100.00
2184;BME280;1098;48.940;8.962;2023-03-01T04:58:46;99168.84;;;0.08;100.00
2184;BME280;1098;48.940;8.962;2023-03-01T05:01:19;99177.16;;;-0.33;100.00
2184;BME280;1098;48.940;8.962;2023-03-01T05:03:48;99174.66;;;-0.25;100.00
2184;BME280;1098;48.940;8.962;2023-03-01T05:06:18;99177.41;;;-0.17;100.00
2184;BME280;1098;48.940;8.962;2023-03-01T05:08:47;99170.31;;;-0.36;100.00
2184;BME280;1098;48.940;8.962;2023-03-01T05:11:17;99174.78;;;-0.27;100.00
2184;BME280;1098;48.940;8.962;2023-03-01T05:13:45;99172.66;;;-0.14;100.00
2184;BME280;1098;48.940;8.962;2023-03-01T05:16:13;99173.38;;;-0.02;100.00
2184;BME280;1098;48.940;8.962;2023-03-01T05:18:42;99169.22;;;-0.43;100.00
2184;BME280;1098;48.940;8.962;2023-03-01T05:21:13;99162.03;;;-0.14;100.00
2184;BME280;1098;48.940;8.962;2023-03-01T05:23:43;99166.81;;;-0.17;100.00
2184;BME280;1098;48.940;8.962;2023-03-01T05:26:11;99160.38;;;-0.05;100.00
2184;BME280;1098;48.940;8.962;2023-03-01T05:29:01;99164.00;;;-0.16;100.00
2184;BME280;1098;48.940;8.962;2023-03-01T05:31:30;99166.81;;;-0.37;100.00
2184;BME280;1098;48.940;8.962;2023-03-01T05:33:58;99156.88;;;-0.06;100.00
2184;BME280;1098;48.940;8.962;2023-03-01T05:36:27;99158.53;;;-0.05;100.00
2184;BME280;1098;48.940;8.962;2023-03-01T05:38:56;99155.81;;;-0.51;100.00
2184;BME280;1098;48.940;8.962;2023-03-01T05:41:24;99154.34;;;-0.07;100.00
2184;BME280;1098;48.940;8.962;2023-03-01T05:43:52;99160.97;;;-0.30;100.00
2184;BME280;1098;48.940;8.962;2023-03-01T05:46:22;99147.44;;;-0.47;100.00
2184;BME280;1098;48.940;8.962;2023-03-01T05:48:51;99163.91;;;-0.53;100.00
2184;BME280;1098;48.940;8.962;2023-03-01T05:51:19;99157.56;;;-0.13;100.00
2184;BME280;1098;48.940;8.962;2023-03-01T05:53:49;99163.31;;;-0.18;100.00
2184;BME280;1098;48.940;8.962;2023-03-01T05:56:17;99158.81;;;-0.17;100.00
2184;BME280;1098;48.940;8.962;2023-03-01T05:58:47;99159.41;;;-0.23;100.00
2184;BME280;1098;48.940;8.962;2023-03-01T06:01:16;99162.03;;;-0.04;100.00
2184;BME280;1098;48.940;8.962;2023-03-01T06:03:46;99161.63;;;-0.19;100.00
2184;BME280;1098;48.940;8.962;2023-03-01T06:06:17;99168.38;;;-0.34;100.00
2184;BME280;1098;48.940;8.962;2023-03-01T06:08:45;99158.97;;;-0.09;100.00
2184;BME280;1098;48.940;8.962;2023-03-01T06:11:13;99159.41;;;-0.33;100.00
2184;BME280;1098;48.940;8.962;2023-03-01T06:13:42;99156.44;;;-0.11;100.00
2184;BME280;1098;48.940;8.962;2023-03-01T06:16:11;99157.75;;;-0.24;100.00
2184;BME280;1098;48.940;8.962;2023-03-01T06:18:40;99154.00;;;-0.70;100.00
2184;BME280;1098;48.940;8.962;2023-03-01T06:21:10;99143.38;;;-0.60;100.00
2184;BME280;1098;48.940;8.962;2023-03-01T06:23:39;99158.75;;;-0.54;100.00
2184;BME280;1098;48.940;8.962;2023-03-01T06:26:08;99164.75;;;-0.52;100.00
2184;BME280;1098;48.940;8.962;2023-03-01T06:28:36;99151.19;;;-0.78;100.00
2184;BME280;1098;48.940;8.962;2023-03-01T06:31:04;99157.28;;;-0.10;100.00
2184;BME280;1098;48.940;8.962;2023-03-01T06:33:35;99154.00;;;-0.51;100.00
2184;BME280;1098;48.940;8.962;2023-03-01T06:36:04;99153.69;;;-0.38;100.00
2184;BME280;1098;48.940;8.962;2023-03-01T06:38:34;99153.97;;;-0.31;100.00
2184;BME280;1098;48.940;8.962;2023-03-01T06:41:05;99158.59;;;-0.53;100.00
2184;BME280;1098;48.940;8.962;2023-03-01T06:43:34;99139.47;;;-0.47;100.00
2184;BME280;1098;48.940;8.962;2023-03-01T06:46:06;99151.97;;;-0.20;100.00
2184;BME280;1098;48.940;8.962;2023-03-01T06:48:35;99153.41;;;-0.35;100.00
2184;BME280;1098;48.940;8.962;2023-03-01T06:51:04;99154.94;;;0.24;100.00
2184;BME280;1098;48.940;8.962;2023-03-01T06:53:32;99151.44;;;0.33;100.00
2184;BME280;1098;48.940;8.962;2023-03-01T06:56:02;99149.03;;;0.40;100.00
2184;BME280;1098;48.940;8.962;2023-03-01T06:58:30;99152.56;;;-0.26;100.00
2184;BME280;1098;48.940;8.962;2023-03-01T07:00:59;99142.88;;;-0.08;100.00
2184;BME280;1098;48.940;8.962;2023-03-01T07:03:27;99140.59;;;0.07;100.00
2184;BME280;1098;48.940;8.962;2023-03-01T07:05:56;99143.38;;;0.15;100.00
2184;BME280;1098;48.940;8.962;2023-03-01T07:08:24;99138.69;;;-0.01;100.00
2184;BME280;1098;48.940;8.962;2023-03-01T07:10:55;99138.00;;;-0.12;100.00
2184;BME280;1098;48.940;8.962;2023-03-01T07:13:25;99133.84;;;0.22;100.00
2184;BME280;1098;48.940;8.962;2023-03-01T07:15:53;99137.59;;;-0.17;100.00
2184;BME280;1098;48.940;8.962;2023-03-01T07:18:22;99139.44;;;-0.27;100.00
2184;BME280;1098;48.940;8.962;2023-03-01T07:20:50;99136.22;;;-0.21;100.00
2184;BME280;1098;48.940;8.962;2023-03-01T07:23:19;99104.25;;;-0.49;100.00
2184;BME280;1098;48.940;8.962;2023-03-01T07:25:51;99123.47;;;-0.08;100.00
2184;BME280;1098;48.940;8.962;2023-03-01T07:28:22;99137.34;;;-0.33;100.00
2184;BME280;1098;48.940;8.962;2023-03-01T07:30:52;99130.91;;;-0.41;100.00
2184;BME280;1098;48.940;8.962;2023-03-01T07:33:24;99120.84;;;-0.27;100.00
2184;BME280;1098;48.940;8.962;2023-03-01T07:35:56;99121.50;;;-0.06;100.00
2184;BME280;1098;48.940;8.962;2023-03-01T07:38:25;99118.09;;;0.11;100.00
2184;BME280;1098;48.940;8.962;2023-03-01T07:40:53;99123.69;;;0.08;100.00
2184;BME280;1098;48.940;8.962;2023-03-01T07:43:21;99109.78;;;0.24;100.00
2184;BME280;1098;48.940;8.962;2023-03-01T07:45:51;99094.03;;;0.13;100.00
2184;BME280;1098;48.940;8.962;2023-03-01T07:48:20;99123.53;;;0.47;100.00
2184;BME280;1098;48.940;8.962;2023-03-01T07:50:48;99122.66;;;0.56;100.00
2184;BME280;1098;48.940;8.962;2023-03-01T07:53:16;99094.03;;;0.67;100.00
2184;BME280;1098;48.940;8.962;2023-03-01T07:55:45;99123.88;;;0.61;100.00
2184;BME280;1098;48.940;8.962;2023-03-01T07:58:13;99116.38;;;0.75;100.00
2184;BME280;1098;48.940;8.962;2023-03-01T08:00:41;99117.56;;;0.62;100.00
2184;BME280;1098;48.940;8.962;2023-03-01T08:03:11;99110.00;;;0.40;100.00
2184;BME280;1098;48.940;8.962;2023-03-01T08:05:40;99117.50;;;0.72;100.00
2184;BME280;1098;48.940;8.962;2023-03-01T08:08:08;99120.47;;;0.69;100.00
2184;BME280;1098;48.940;8.962;2023-03-01T08:10:37;99111.19;;;1.00;100.00
2184;BME280;1098;48.940;8.962;2023-03-01T08:13:05;99118.59;;;0.79;100.00
2184;BME280;1098;48.940;8.962;2023-03-01T08:15:33;99119.47;;;0.70;100.00
2184;BME280;1098;48.940;8.962;2023-03-01T08:18:02;99113.31;;;0.69;100.00
2184;BME280;1098;48.940;8.962;2023-03-01T08:20:31;99113.22;;;1.07;100.00
2184;BME280;1098;48.940;8.962;2023-03-01T08:23:00;99107.22;;;1.22;100.00
2184;BME280;1098;48.940;8.962;2023-03-01T08:25:28;99102.94;;;1.47;100.00
2184;BME280;1098;48.940;8.962;2023-03-01T08:27:57;99101.44;;;0.91;100.00
2184;BME280;1098;48.940;8.962;2023-03-01T08:30:25;99100.66;;;1.52;100.00
2184;BME280;1098;48.940;8.962;2023-03-01T08:32:54;99084.44;;;1.46;100.00
2184;BME280;1098;48.940;8.962;2023-03-01T08:35:23;99094.56;;;1.60;100.00
2184;BME280;1098;48.940;8.962;2023-03-01T08:37:53;99106.91;;;1.43;100.00
2184;BME280;1098;48.940;8.962;2023-03-01T08:40:21;99108.72;;;1.25;100.00
2184;BME280;1098;48.940;8.962;2023-03-01T08:42:49;99097.53;;;2.42;100.00
2184;BME280;1098;48.940;8.962;2023-03-01T08:45:20;99107.69;;;2.05;100.00
2184;BME280;1098;48.940;8.962;2023-03-01T08:47:52;99103.75;;;3.09;100.00
2184;BME280;1098;48.940;8.962;2023-03-01T08:50:20;99103.81;;;1.99;100.00
2184;BME280;1098;48.940;8.962;2023-03-01T08:52:50;99092.41;;;1.89;100.00
2184;BME280;1098;48.940;8.962;2023-03-01T08:55:19;99089.09;;;2.55;100.00
2184;BME280;1098;48.940;8.962;2023-03-01T08:57:48;99087.09;;;2.49;100.00
2184;BME280;1098;48.940;8.962;2023-03-01T09:00:16;99097.06;;;1.87;100.00
2184;BME280;1098;48.940;8.962;2023-03-01T09:02:45;99085.53;;;2.04;100.00
2184;BME280;1098;48.940;8.962;2023-03-01T09:05:14;99083.09;;;2.19;100.00
2184;BME280;1098;48.940;8.962;2023-03-01T09:07:43;99088.19;;;2.38;100.00
2184;BME280;1098;48.940;8.962;2023-03-01T09:10:12;99085.75;;;2.53;100.00
2184;BME280;1098;48.940;8.962;2023-03-01T09:12:41;99058.66;;;2.32;100.00
2184;BME280;1098;48.940;8.962;2023-03-01T09:15:10;99072.13;;;2.72;100.00
2184;BME280;1098;48.940;8.962;2023-03-01T09:17:38;99067.81;;;2.80;100.00
2184;BME280;1098;48.940;8.962;2023-03-01T09:20:06;99064.84;;;3.15;100.00
2184;BME280;1098;48.940;8.962;2023-03-01T09:22:35;99058.66;;;2.82;100.00
2184;BME280;1098;48.940;8.962;2023-03-01T09:25:03;99054.88;;;3.50;100.00
2184;BME280;1098;48.940;8.962;2023-03-01T09:27:32;99058.03;;;3.29;100.00
2184;BME280;1098;48.940;8.962;2023-03-01T09:30:01;99052.00;;;3.67;100.00
2184;BME280;1098;48.940;8.962;2023-03-01T09:32:30;99052.53;;;3.30;100.00
2184;BME280;1098;48.940;8.962;2023-03-01T09:34:58;99050.00;;;3.61;100.00
2184;BME280;1098;48.940;8.962;2023-03-01T09:37:34;99052.69;;;3.37;100.00
2184;BME280;1098;48.940;8.962;2023-03-01T09:40:03;99044.00;;;3.67;100.00
2184;BME280;1098;48.940;8.962;2023-03-01T09:42:34;99043.53;;;3.31;100.00
2184;BME280;1098;48.940;8.962;2023-03-01T09:45:05;99041.78;;;3.79;100.00
2184;BME280;1098;48.940;8.962;2023-03-01T09:47:34;99032.31;;;4.24;100.00
2184;BME280;1098;48.940;8.962;2023-03-01T09:50:09;99016.50;;;3.98;100.00
2184;BME280;1098;48.940;8.962;2023-03-01T09:52:41;99025.59;;;4.28;100.00
2184;BME280;1098;48.940;8.962;2023-03-01T09:55:12;99016.28;;;4.55;100.00
2184;BME280;1098;48.940;8.962;2023-03-01T09:57:47;99018.94;;;5.08;100.00
2184;BME280;1098;48.940;8.962;2023-03-01T10:00:23;99032.03;;;4.49;100.00
2184;BME280;1098;48.940;8.962;2023-03-01T10:02:59;99017.44;;;4.83;100.00
2184;BME280;1098;48.940;8.962;2023-03-01T10:05:36;99018.84;;;4.01;100.00
2184;BME280;1098;48.940;8.962;2023-03-01T10:08:24;99013.44;;;4.17;100.00
2184;BME280;1098;48.940;8.962;2023-03-01T10:10:54;99015.31;;;4.47;100.00
2184;BME280;1098;48.940;8.962;2023-03-01T10:13:23;98999.78;;;4.74;100.00
2184;BME280;1098;48.940;8.962;2023-03-01T10:15:55;99008.63;;;4.43;100.00
2184;BME280;1098;48.940;8.962;2023-03-01T10:18:25;98995.97;;;4.68;100.00
2184;BME280;1098;48.940;8.962;2023-03-01T10:20:55;98998.38;;;4.55;100.00
2184;BME280;1098;48.940;8.962;2023-03-01T10:23:26;99001.91;;;4.56;100.00
2184;BME280;1098;48.940;8.962;2023-03-01T10:25:59;98994.16;;;4.61;100.00
2184;BME280;1098;48.940;8.962;2023-03-01T10:28:35;98996.25;;;5.57;100.00
2184;BME280;1098;48.940;8.962;2023-03-01T10:31:09;98985.13;;;5.97;100.00
2184;BME280;1098;48.940;8.962;2023-03-01T10:33:39;98996.38;;;4.80;100.00
2184;BME280;1098;48.940;8.962;2023-03-01T10:36:08;98988.97;;;4.59;100.00
2184;BME280;1098;48.940;8.962;2023-03-01T10:38:47;98978.91;;;4.92;100.00
2184;BME280;1098;48.940;8.962;2023-03-01T10:41:15;98971.88;;;4.91;100.00
2184;BME280;1098;48.940;8.962;2023-03-01T10:43:47;98985.66;;;5.03;100.00
2184;BME280;1098;48.940;8.962;2023-03-01T10:46:23;98975.44;;;5.44;100.00
2184;BME280;1098;48.940;8.962;2023-03-01T10:49:05;98978.19;;;5.36;100.00
2184;BME280;1098;48.940;8.962;2023-03-01T10:51:34;98974.19;;;5.17;100.00
2184;BME280;1098;48.940;8.962;2023-03-01T10:54:02;98983.94;;;5.10;100.00
2184;BME280;1098;48.940;8.962;2023-03-01T10:56:33;98981.00;;;5.86;100.00
2184;BME280;1098;48.940;8.962;2023-03-01T10:59:19;98975.28;;;5.23;100.00
2184;BME280;1098;48.940;8.962;2023-03-01T11:02:00;98956.03;;;6.30;100.00
2184;BME280;1098;48.940;8.962;2023-03-01T11:04:38;98959.66;;;5.64;100.00
2184;BME280;1098;48.940;8.962;2023-03-01T11:07:06;98959.84;;;5.77;100.00
2184;BME280;1098;48.940;8.962;2023-03-01T11:09:34;98951.06;;;5.68;100.00
2184;BME280;1098;48.940;8.962;2023-03-01T11:12:05;98947.13;;;5.94;100.00
2184;BME280;1098;48.940;8.962;2023-03-01T11:14:45;98940.94;;;6.65;100.00
2184;BME280;1098;48.940;8.962;2023-03-01T11:17:17;98940.25;;;6.20;100.00
2184;BME280;1098;48.940;8.962;2023-03-01T11:19:59;98927.91;;;6.26;100.00
2184;BME280;1098;48.940;8.962;2023-03-01T11:22:28;98921.94;;;5.50;100.00
2184;BME280;1098;48.940;8.962;2023-03-01T11:24:58;98912.78;;;6.04;100.00
2184;BME280;1098;48.940;8.962;2023-03-01T11:27:40;98906.44;;;6.26;100.00
2184;BME280;1098;48.940;8.962;2023-03-01T11:30:17;98907.81;;;6.01;100.00
2184;BME280;1098;48.940;8.962;2023-03-01T11:32:53;98909.59;;;6.30;100.00
2184;BME280;1098;48.940;8.962;2023-03-01T11:35:26;98907.34;;;5.97;100.00
2184;BME280;1098;48.940;8.962;2023-03-01T11:38:02;98904.88;;;6.32;100.00
2184;BME280;1098;48.940;8.962;2023-03-01T11:40:35;98906.19;;;6.21;100.00
2184;BME280;1098;48.940;8.962;2023-03-01T11:43:13;98904.16;;;6.23;100.00
2184;BME280;1098;48.940;8.962;2023-03-01T11:45:55;98888.00;;;6.38;100.00
2184;BME280;1098;48.940;8.962;2023-03-01T11:48:38;98888.06;;;6.08;100.00
2184;BME280;1098;48.940;8.962;2023-03-01T11:51:23;98888.59;;;6.54;100.00
2184;BME280;1098;48.940;8.962;2023-03-01T11:54:04;98891.00;;;6.49;100.00
2184;BME280;1098;48.940;8.962;2023-03-01T11:56:35;98882.19;;;6.34;100.00
2184;BME280;1098;48.940;8.962;2023-03-01T11:59:18;98872.91;;;7.01;100.00
2184;BME280;1098;48.940;8.962;2023-03-01T12:05:23;98858.59;;;6.72;100.00
2184;BME280;1098;48.940;8.962;2023-03-01T12:08:00;98858.72;;;6.85;100.00
2184;BME280;1098;48.940;8.962;2023-03-01T12:10:41;98852.66;;;6.77;100.00
2184;BME280;1098;48.940;8.962;2023-03-01T12:13:26;98850.63;;;6.58;100.00
2184;BME280;1098;48.940;8.962;2023-03-01T12:16:15;98837.00;;;6.80;100.00
2184;BME280;1098;48.940;8.962;2023-03-01T12:19:24;98838.75;;;7.29;100.00
2184;BME280;1098;48.940;8.962;2023-03-01T12:22:09;98827.72;;;6.83;100.00
2184;BME280;1098;48.940;8.962;2023-03-01T12:25:07;98821.53;;;7.17;100.00
2184;BME280;1098;48.940;8.962;2023-03-01T12:27:54;98816.63;;;6.93;100.00
2184;BME280;1098;48.940;8.962;2023-03-01T12:30:35;98807.41;;;7.08;100.00
2184;BME280;1098;48.940;8.962;2023-03-01T12:33:17;98806.94;;;7.26;100.00
2184;BME280;1098;48.940;8.962;2023-03-01T12:39:01;98807.44;;;7.49;100.00
2184;BME280;1098;48.940;8.962;2023-03-01T12:41:46;98805.28;;;6.97;100.00
2184;BME280;1098;48.940;8.962;2023-03-01T12:44:27;98800.00;;;7.10;100.00
2184;BME280;1098;48.940;8.962;2023-03-01T12:47:07;98788.03;;;7.47;100.00
2184;BME280;1098;48.940;8.962;2023-03-01T12:49:40;98792.41;;;7.20;100.00
2184;BME280;1098;48.940;8.962;2023-03-01T12:52:10;98797.53;;;7.50;100.00
2184;BME280;1098;48.940;8.962;2023-03-01T12:54:41;98780.13;;;8.00;100.00
2184;BME280;1098;48.940;8.962;2023-03-01T12:57:11;98777.66;;;7.44;100.00
2184;BME280;1098;48.940;8.962;2023-03-01T12:59:42;98762.94;;;7.88;100.00
2184;BME280;1098;48.940;8.962;2023-03-01T13:02:15;98765.69;;;7.53;100.00
2184;BME280;1098;48.940;8.962;2023-03-01T13:04:52;98775.97;;;7.37;100.00
2184;BME280;1098;48.940;8.962;2023-03-01T13:07:23;98758.59;;;7.39;100.00
2184;BME280;1098;48.940;8.962;2023-03-01T13:09:58;98765.13;;;7.71;100.00
2184;BME280;1098;48.940;8.962;2023-03-01T13:18:28;98757.31;;;7.83;100.00
2184;BME280;1098;48.940;8.962;2023-03-01T13:20:57;98758.97;;;7.90;100.00
2184;BME280;1098;48.940;8.962;2023-03-01T13:23:26;98760.69;;;8.18;100.00
2184;BME280;1098;48.940;8.962;2023-03-01T13:26:10;98757.69;;;7.73;100.00
2184;BME280;1098;48.940;8.962;2023-03-01T13:28:46;98749.63;;;7.67;100.00
2184;BME280;1098;48.940;8.962;2023-03-01T13:34:02;98749.25;;;7.83;100.00
2184;BME280;1098;48.940;8.962;2023-03-01T13:36:47;98749.06;;;7.91;100.00
2184;BME280;1098;48.940;8.962;2023-03-01T13:39:30;98746.16;;;7.86;100.00
2184;BME280;1098;48.940;8.962;2023-03-01T13:42:03;98756.00;;;7.59;100.00
2184;BME280;1098;48.940;8.962;2023-03-01T13:44:51;98744.69;;;7.77;100.00
2184;BME280;1098;48.940;8.962;2023-03-01T13:47:20;98746.09;;;7.73;100.00
2184;BME280;1098;48.940;8.962;2023-03-01T13:49:49;98741.69;;;7.45;100.00
2184;BME280;1098;48.940;8.962;2023-03-01T13:52:29;98742.50;;;8.26;100.00
2184;BME280;1098;48.940;8.962;2023-03-01T13:54:59;98755.22;;;7.72;100.00
2184;BME280;1098;48.940;8.962;2023-03-01T13:57:31;98745.94;;;7.81;100.00